Time;durP1;ratioP1;P1;durP2;ratioP2;P2;SDS_P1;SDS_P2;PMS_P1;PMS_P2;Temp;Humidity;BMP_temperature;BMP_pressure;BME280_temperature;BME280_humidity;BME280_pressure;Samples;Min_cycle;Max_cycle;Signal;HPM_P1;HPM_P2
2021/04/08 00:01:57;;;;;;;37.87;14.60;;;-0.40;99.90;;;;;;4434030;28;658301;-72
2021/04/08 00:04:45;;;;;;;35.92;13.27;;;-0.40;99.90;;;;;;4411419;28;659387;-71
2021/04/08 00:07:33;;;;;;;34.00;14.97;;;-0.50;99.90;;;;;;4419505;28;658816;-70
2021/04/08 00:10:22;;;;;;;31.77;13.57;;;-0.50;99.90;;;;;;4434252;28;659625;-72
2021/04/08 00:13:10;;;;;;;32.03;14.37;;;-0.50;99.90;;;;;;4411126;28;659331;-71
2021/04/08 00:15:58;;;;;;;32.87;14.80;;;-0.60;99.90;;;;;;4426183;28;658680;-69
2021/04/08 00:18:45;;;;;;;34.23;14.63;;;-0.60;99.90;;;;;;4432527;28;659306;-71
2021/04/08 00:21:33;;;;;;;30.60;12.67;;;-0.70;99.90;;;;;;4411980;28;658663;-70
2021/04/08 00:24:21;;;;;;;75.90;15.07;;;-0.70;99.90;;;;;;4430485;28;659760;-71
2021/04/08 00:27:09;;;;;;;30.57;13.97;;;-0.70;99.90;;;;;;4408905;28;658534;-71
2021/04/08 00:29:57;;;;;;;33.50;13.57;;;-0.80;99.90;;;;;;4430099;28;658697;-71
2021/04/08 00:32:44;;;;;;;29.17;13.33;;;-0.80;99.90;;;;;;4407121;28;660074;-71
2021/04/08 00:35:33;;;;;;;27.97;12.57;;;-0.90;99.90;;;;;;4429289;28;659124;-71
2021/04/08 00:38:20;;;;;;;29.10;13.30;;;-0.90;99.90;;;;;;4406751;28;659258;-72
2021/04/08 00:41:08;;;;;;;28.48;11.15;;;-0.90;99.90;;;;;;4410886;28;658846;-70
2021/04/08 00:43:58;;;;;;;23.97;11.07;;;-0.90;99.90;;;;;;4429985;28;660361;-72
2021/04/08 00:46:46;;;;;;;23.97;9.60;;;-0.90;99.90;;;;;;4406797;28;658975;-71
2021/04/08 00:49:33;;;;;;;33.03;12.67;;;-1.00;99.90;;;;;;4412637;28;658127;-71
2021/04/08 00:52:21;;;;;;;27.07;11.30;;;-0.90;99.90;;;;;;4433362;28;659549;-72
2021/04/08 00:55:10;;;;;;;25.87;10.83;;;-1.00;99.90;;;;;;4408180;28;658568;-72
2021/04/08 00:57:58;;;;;;;33.07;11.77;;;-1.00;99.90;;;;;;4421014;28;659246;-70
2021/04/08 01:00:46;;;;;;;24.30;10.93;;;-1.00;99.90;;;;;;4432883;28;659461;-71
2021/04/08 01:03:34;;;;;;;30.00;11.80;;;-1.00;99.90;;;;;;4410612;28;658702;-72
2021/04/08 01:06:22;;;;;;;24.53;9.47;;;-1.00;99.90;;;;;;4428771;28;659269;-71
2021/04/08 01:09:09;;;;;;;27.27;11.73;;;-1.00;99.90;;;;;;4407583;28;659384;-72
2021/04/08 01:11:57;;;;;;;25.83;11.93;;;-1.00;99.90;;;;;;4432822;28;658305;-71
2021/04/08 01:14:45;;;;;;;23.10;11.57;;;-1.00;99.90;;;;;;4410685;28;659383;-72
2021/04/08 01:17:38;;;;;;;29.45;12.70;;;-1.00;99.90;;;;;;4414501;28;658769;-70
2021/04/08 01:20:45;;;;;;;24.37;11.67;;;-1.10;99.90;;;;;;4406188;28;659027;-72
2021/04/08 01:24:11;;;;;;;31.87;12.20;;;-1.10;99.90;;;;;;4398585;28;659317;-70
2021/04/08 01:27:23;;;;;;;31.37;13.23;;;-1.00;99.90;;;;;;4410426;28;658619;-71
2021/04/08 01:30:33;;;;;;;24.83;11.23;;;-1.10;99.90;;;;;;4384008;28;660092;-71
2021/04/08 01:33:24;;;;;;;19.60;9.00;;;-1.10;99.90;;;;;;4405926;28;659316;-71
2021/04/08 01:36:16;;;;;;;23.47;11.03;;;-1.10;99.90;;;;;;4411298;28;657657;-71
2021/04/08 01:39:05;;;;;;;26.87;12.23;;;-1.10;99.90;;;;;;4382867;28;658973;-71
2021/04/08 01:41:54;;;;;;;23.10;10.97;;;-1.10;99.90;;;;;;4419970;28;658831;-69
2021/04/08 01:44:42;;;;;;;19.70;9.57;;;-1.10;99.90;;;;;;4428845;28;658462;-73
2021/04/08 01:47:30;;;;;;;16.00;8.53;;;-1.20;99.90;;;;;;4407391;28;658850;-72
2021/04/08 01:50:18;;;;;;;20.50;9.38;;;-1.20;99.90;;;;;;4410816;28;657815;-70
2021/04/08 01:53:06;;;;;;;17.57;7.83;;;-1.20;99.90;;;;;;4429613;28;658030;-72
2021/04/08 01:55:56;;;;;;;18.83;8.70;;;-1.20;99.90;;;;;;4410213;28;657850;-71
2021/04/08 01:58:43;;;;;;;18.20;7.83;;;-1.20;99.90;;;;;;4410931;28;657744;-71
2021/04/08 02:01:30;;;;;;;20.50;7.40;;;-1.20;99.90;;;;;;4430646;28;657212;-72
2021/04/08 02:04:18;;;;;;;17.43;7.70;;;-1.20;99.90;;;;;;4411567;28;657901;-70
2021/04/08 02:07:06;;;;;;;20.77;7.75;;;-1.20;99.90;;;;;;4429102;28;658223;-72
2021/04/08 02:09:53;;;;;;;17.67;7.87;;;-1.10;99.90;;;;;;4409493;28;658069;-71
2021/04/08 02:12:41;;;;;;;16.67;7.03;;;-1.20;99.90;;;;;;4431252;28;657882;-72
2021/04/08 02:15:28;;;;;;;21.00;8.30;;;-1.20;99.90;;;;;;4410418;28;657777;-71
2021/04/08 02:18:16;;;;;;;17.13;7.63;;;-1.20;99.90;;;;;;4429961;28;658935;-70
2021/04/08 02:21:04;;;;;;;17.07;7.93;;;-1.20;99.90;;;;;;4410643;28;657332;-70
2021/04/08 02:23:51;;;;;;;17.53;8.70;;;-1.10;99.90;;;;;;4429840;28;658252;-71
2021/04/08 02:26:40;;;;;;;18.03;8.33;;;-1.10;99.90;;;;;;4407241;28;657603;-71
2021/04/08 02:29:27;;;;;;;13.50;6.40;;;-1.10;99.90;;;;;;4422410;28;658467;-69
2021/04/08 02:32:14;;;;;;;16.33;6.80;;;-1.00;99.90;;;;;;4433218;28;658620;-70
2021/04/08 02:35:03;;;;;;;25.57;8.80;;;-0.90;99.90;;;;;;4433375;28;657271;-71
2021/04/08 02:37:51;;;;;;;16.60;7.50;;;-0.90;99.90;;;;;;4406573;28;658357;-71
2021/04/08 02:40:38;;;;;;;16.83;7.83;;;-0.90;99.90;;;;;;4411300;28;657529;-70
2021/04/08 02:43:25;;;;;;;15.20;6.93;;;-0.80;99.90;;;;;;4436377;28;658514;-70
2021/04/08 02:46:13;;;;;;;14.47;6.57;;;-0.80;99.90;;;;;;4413833;28;657740;-69
2021/04/08 02:49:00;;;;;;;19.70;8.00;;;-0.70;99.90;;;;;;4432827;28;658500;-70
2021/04/08 02:51:51;;;;;;;12.57;7.10;;;-0.70;99.90;;;;;;4428274;28;657919;-69
2021/04/08 02:54:41;;;;;;;18.20;7.80;;;-0.70;99.90;;;;;;4413941;28;657356;-70
2021/04/08 02:57:31;;;;;;;14.23;7.13;;;-0.70;99.90;;;;;;4413214;28;657686;-70
2021/04/08 03:00:19;;;;;;;14.50;8.43;;;-0.60;99.90;;;;;;4413336;28;658051;-69
2021/04/08 03:03:07;;;;;;;19.43;8.57;;;-0.60;99.90;;;;;;4431900;28;657541;-70
2021/04/08 03:05:55;;;;;;;17.10;8.02;;;-0.60;99.90;;;;;;4413706;28;658667;-71
2021/04/08 03:08:42;;;;;;;16.67;8.00;;;-0.50;99.90;;;;;;4431956;28;657648;-70
2021/04/08 03:11:33;;;;;;;12.63;7.18;;;-0.50;99.90;;;;;;4413198;28;657992;-71
2021/04/08 03:14:21;;;;;;;18.13;8.30;;;-0.50;99.90;;;;;;4409555;28;657777;-71
2021/04/08 03:17:08;;;;;;;18.20;8.43;;;-0.40;99.90;;;;;;4413697;28;657551;-70
2021/04/08 03:19:55;;;;;;;20.10;9.33;;;-0.40;99.90;;;;;;4434826;28;658491;-70
2021/04/08 03:22:42;;;;;;;23.07;10.87;;;-0.40;99.90;;;;;;4414395;28;657468;-69
2021/04/08 03:25:30;;;;;;;20.93;10.73;;;-0.40;99.90;;;;;;4417763;28;660234;-71
2021/04/08 03:28:18;;;;;;;16.70;9.20;;;-0.40;99.90;;;;;;4423296;28;658849;-69
2021/04/08 03:31:06;;;;;;;18.83;9.80;;;-0.30;99.90;;;;;;4432366;28;658210;-71
2021/04/08 03:33:53;;;;;;;16.67;8.90;;;-0.30;99.90;;;;;;4412963;28;657904;-69
2021/04/08 03:36:40;;;;;;;18.30;8.90;;;-0.20;99.90;;;;;;4434823;28;658479;-70
2021/04/08 03:39:28;;;;;;;10.50;6.57;;;-0.20;99.90;;;;;;4412804;28;657147;-69
2021/04/08 03:42:15;;;;;;;13.83;7.43;;;-0.20;99.90;;;;;;4431671;28;659472;-70
2021/04/08 03:45:04;;;;;;;14.37;7.27;;;-0.20;99.90;;;;;;4422756;28;657681;-69
2021/04/08 03:47:51;;;;;;;17.03;8.87;;;-0.10;99.90;;;;;;4434634;28;657541;-70
2021/04/08 03:50:39;;;;;;;14.32;6.25;;;-0.10;99.90;;;;;;4412913;28;657497;-70
2021/04/08 03:53:26;;;;;;;13.17;6.63;;;-0.10;99.90;;;;;;4431256;28;657387;-71
2021/04/08 03:56:13;;;;;;;17.80;9.13;;;-0.10;99.90;;;;;;4412538;28;658028;-70
2021/04/08 03:59:00;;;;;;;17.13;8.60;;;-0.10;99.90;;;;;;4430881;28;658675;-70
2021/04/08 04:01:49;;;;;;;15.93;8.17;;;-0.10;99.90;;;;;;4412815;28;657448;-68
2021/04/08 04:04:36;;;;;;;16.73;8.73;;;-0.20;99.90;;;;;;4428147;28;658818;-69
2021/04/08 04:07:23;;;;;;;17.40;7.80;;;-0.20;99.90;;;;;;4412574;28;657558;-70
2021/04/08 04:10:11;;;;;;;15.63;7.50;;;-0.20;99.90;;;;;;4431145;28;658385;-70
2021/04/08 04:12:58;;;;;;;17.13;8.97;;;-0.20;99.90;;;;;;4412412;28;657561;-70
2021/04/08 04:15:47;;;;;;;18.33;9.20;;;-0.20;99.90;;;;;;4430771;28;658667;-71
2021/04/08 04:18:36;;;;;;;15.43;7.70;;;-0.30;99.90;;;;;;4408721;28;658802;-70
2021/04/08 04:21:23;;;;;;;14.43;8.00;;;-0.30;99.90;;;;;;4412678;28;657871;-70
2021/04/08 04:24:10;;;;;;;15.57;7.60;;;-0.30;99.90;;;;;;4431504;28;658185;-71
2021/04/08 04:26:58;;;;;;;14.13;7.20;;;-0.30;99.90;;;;;;4412805;28;658141;-69
2021/04/08 04:29:45;;;;;;;19.10;9.27;;;-0.30;99.90;;;;;;4431888;28;658406;-71
2021/04/08 04:32:32;;;;;;;17.80;9.87;;;-0.30;99.90;;;;;;4413059;28;657979;-69
2021/04/08 04:35:21;;;;;;;20.40;9.00;;;-0.40;99.90;;;;;;4435089;28;657983;-70
2021/04/08 04:38:08;;;;;;;19.80;9.30;;;-0.50;99.90;;;;;;4411829;28;657865;-69
2021/04/08 04:40:56;;;;;;;17.17;8.67;;;-0.50;99.90;;;;;;4433979;28;658115;-70
2021/04/08 04:43:43;;;;;;;14.60;8.03;;;-0.50;99.90;;;;;;4412153;28;657905;-68
2021/04/08 04:46:30;;;;;;;22.20;10.57;;;-0.50;99.90;;;;;;4434537;28;658118;-71
2021/04/08 04:49:17;;;;;;;16.80;8.25;;;-0.50;99.90;;;;;;4410292;28;658596;-68
2021/04/08 04:52:06;;;;;;;25.53;11.50;;;-0.50;99.90;;;;;;4430584;28;659061;-71
2021/04/08 04:54:55;;;;;;;19.23;9.83;;;-0.50;99.90;;;;;;4408797;28;658944;-70
2021/04/08 04:57:42;;;;;;;21.38;11.00;;;-0.40;99.90;;;;;;4415783;28;657641;-69
2021/04/08 05:00:29;;;;;;;22.93;10.83;;;-0.40;99.90;;;;;;4429110;28;659226;-70
2021/04/08 05:03:16;;;;;;;14.73;7.70;;;-0.40;99.90;;;;;;4428822;28;658498;-71
2021/04/08 05:06:04;;;;;;;18.10;10.00;;;-0.30;99.90;;;;;;4411666;28;657486;-71
2021/04/08 05:08:52;;;;;;;17.60;8.10;;;-0.30;99.90;;;;;;4431308;28;658857;-71
2021/04/08 05:11:39;;;;;;;20.07;10.07;;;-0.30;99.90;;;;;;4407626;28;659451;-70
2021/04/08 05:14:27;;;;;;;21.27;11.10;;;-0.30;99.90;;;;;;4428702;28;658677;-70
2021/04/08 05:17:14;;;;;;;19.83;8.83;;;-0.30;99.90;;;;;;4405988;28;659895;-71
2021/04/08 05:20:01;;;;;;;19.70;10.80;;;-0.30;99.90;;;;;;4430462;28;657662;-70
2021/04/08 05:22:48;;;;;;;16.52;9.00;;;-0.20;99.90;;;;;;4406440;28;658507;-71
2021/04/08 05:25:36;;;;;;;23.10;12.70;;;-0.30;99.90;;;;;;4429825;28;658365;-70
2021/04/08 05:28:24;;;;;;;25.27;12.83;;;-0.20;99.90;;;;;;4406066;28;658830;-71
2021/04/08 05:31:11;;;;;;;20.37;10.93;;;-0.20;99.90;;;;;;4428876;28;658568;-71
2021/04/08 05:33:58;;;;;;;26.47;12.63;;;-0.10;99.90;;;;;;4409939;28;658416;-69
2021/04/08 05:36:45;;;;;;;25.50;12.80;;;-0.10;99.90;;;;;;4428625;28;659644;-68
2021/04/08 05:39:33;;;;;;;21.90;11.17;;;-0.10;99.90;;;;;;4410271;28;658678;-71
2021/04/08 05:42:22;;;;;;;21.90;10.27;;;-0.10;99.90;;;;;;4429377;28;658969;-69
2021/04/08 05:45:10;;;;;;;24.00;12.07;;;-0.10;99.90;;;;;;4406497;28;660126;-71
2021/04/08 05:47:58;;;;;;;21.83;11.53;;;0.00;99.90;;;;;;4415745;28;658645;-67
2021/04/08 05:50:45;;;;;;;22.97;12.00;;;0.00;99.90;;;;;;4429853;28;658158;-71
2021/04/08 05:53:32;;;;;;;19.83;11.03;;;0.00;99.90;;;;;;4410511;28;657663;-69
2021/04/08 05:56:19;;;;;;;23.52;11.43;;;0.00;99.90;;;;;;4433621;28;657831;-70
2021/04/08 05:59:08;;;;;;;25.00;11.87;;;0.00;99.90;;;;;;4429312;28;657585;-69
2021/04/08 06:01:55;;;;;;;18.70;9.47;;;0.00;99.90;;;;;;4410260;28;658732;-71
2021/04/08 06:04:43;;;;;;;23.60;11.83;;;0.00;99.90;;;;;;4422921;28;657133;-68
2021/04/08 06:07:30;;;;;;;27.90;14.13;;;0.00;99.90;;;;;;4429818;28;659061;-70
2021/04/08 06:10:18;;;;;;;24.57;12.27;;;0.00;99.90;;;;;;4410713;28;657713;-69
2021/04/08 06:13:06;;;;;;;35.50;16.70;;;0.10;99.90;;;;;;4434027;28;658140;-70
2021/04/08 06:15:54;;;;;;;24.00;10.60;;;0.10;99.90;;;;;;4410046;28;657552;-70
2021/04/08 06:18:41;;;;;;;24.90;12.07;;;0.20;99.90;;;;;;4429253;28;657825;-70
2021/04/08 06:21:28;;;;;;;32.13;14.57;;;0.20;99.90;;;;;;4407562;28;657440;-70
2021/04/08 06:24:16;;;;;;;30.47;14.53;;;0.30;99.90;;;;;;4429587;28;658106;-70
2021/04/08 06:27:04;;;;;;;31.87;15.03;;;0.30;99.90;;;;;;4410252;28;657990;-71
2021/04/08 06:29:54;;;;;;;29.20;14.33;;;0.40;99.90;;;;;;4428120;28;657723;-70
2021/04/08 06:32:43;;;;;;;29.97;13.37;;;0.40;99.90;;;;;;4411021;28;658084;-71
2021/04/08 06:35:30;;;;;;;28.37;13.83;;;0.40;99.90;;;;;;4410820;28;658454;-70
2021/04/08 06:38:18;;;;;;;25.65;11.20;;;0.50;99.90;;;;;;4415281;28;657285;-70
2021/04/08 06:41:05;;;;;;;27.50;12.53;;;0.60;99.90;;;;;;4433341;28;658126;-70
2021/04/08 06:43:53;;;;;;;32.67;14.80;;;0.70;99.90;;;;;;4410368;28;657368;-70
2021/04/08 06:46:41;;;;;;;19.83;9.40;;;0.70;99.90;;;;;;4429244;28;659162;-70
2021/04/08 06:49:34;;;;;;;28.47;14.17;;;0.60;99.90;;;;;;4409821;28;656850;-70
2021/04/08 06:52:21;;;;;;;27.50;13.97;;;0.60;99.90;;;;;;4406495;28;657699;-68
2021/04/08 06:55:09;;;;;;;34.63;15.40;;;0.60;99.90;;;;;;4410602;28;657492;-70
2021/04/08 06:57:57;;;;;;;33.50;16.37;;;0.60;99.90;;;;;;4428885;28;657577;-70
2021/04/08 07:00:45;;;;;;;17.57;9.00;;;0.70;99.90;;;;;;4410086;28;658499;-70
2021/04/08 07:03:32;;;;;;;29.13;14.27;;;0.70;99.90;;;;;;4425795;28;656444;-67
2021/04/08 07:06:23;;;;;;;29.33;13.87;;;0.80;99.90;;;;;;4429493;28;658937;-69
2021/04/08 07:09:12;;;;;;;23.63;9.33;;;0.90;99.90;;;;;;4406155;28;659046;-70
2021/04/08 07:12:00;;;;;;;29.70;14.77;;;0.90;99.90;;;;;;4407015;28;657310;-70
2021/04/08 07:14:48;;;;;;;28.97;13.00;;;0.90;99.90;;;;;;4419618;28;658049;-68
2021/04/08 07:17:35;;;;;;;40.00;15.90;;;1.00;99.90;;;;;;4429295;28;659023;-69
2021/04/08 07:20:23;;;;;;;31.55;13.45;;;1.10;99.90;;;;;;4414933;28;657718;-68
2021/04/08 07:23:13;;;;;;;32.70;15.30;;;1.10;99.90;;;;;;4387458;28;658690;-70
2021/04/08 07:26:01;;;;;;;32.13;14.10;;;1.20;99.90;;;;;;4410477;28;658765;-70
2021/04/08 07:28:49;;;;;;;26.47;12.00;;;1.30;99.90;;;;;;4413428;28;657491;-70
2021/04/08 07:31:36;;;;;;;30.33;13.70;;;1.50;99.90;;;;;;4432329;28;657457;-70
2021/04/08 07:34:33;;;;;;;29.43;12.80;;;1.50;99.90;;;;;;4413078;28;657539;-69
2021/04/08 07:37:27;;;;;;;22.90;10.20;;;1.70;99.90;;;;;;4408929;28;658280;-70
2021/04/08 07:40:17;;;;;;;16.30;7.03;;;1.80;99.90;;;;;;4413479;28;657563;-70
2021/04/08 07:43:14;;;;;;;19.23;9.40;;;1.80;99.90;;;;;;4414315;28;656821;-70
2021/04/08 07:46:02;;;;;;;21.27;9.37;;;1.70;99.90;;;;;;4414454;28;656969;-70
2021/04/08 07:48:50;;;;;;;20.63;9.17;;;1.70;99.90;;;;;;4410593;28;658237;-70
2021/04/08 07:51:38;;;;;;;19.83;9.47;;;1.60;99.90;;;;;;4423208;28;657270;-69
2021/04/08 07:54:25;;;;;;;23.57;10.47;;;1.40;99.90;;;;;;4436682;28;656397;-70
2021/04/08 07:57:14;;;;;;;25.70;10.65;;;1.40;99.90;;;;;;4412286;28;657817;-69
2021/04/08 08:00:17;;;;;;;16.37;8.83;;;1.50;99.90;;;;;;4431508;28;658782;-70
2021/04/08 08:03:05;;;;;;;30.17;10.73;;;1.60;99.90;;;;;;4389293;28;657097;-70
2021/04/08 08:05:58;;;;;;;27.70;11.33;;;1.60;99.90;;;;;;4414851;28;657521;-68
2021/04/08 08:08:49;;;;;;;25.63;11.63;;;1.60;99.90;;;;;;4408631;28;658329;-70
2021/04/08 08:11:40;;;;;;;25.93;9.73;;;1.70;99.90;;;;;;4408615;28;657967;-70
2021/04/08 08:14:35;;;;;;;23.97;11.53;;;1.70;99.90;;;;;;4399700;28;656747;-68
2021/04/08 08:17:23;;;;;;;21.83;10.33;;;1.90;99.90;;;;;;4397450;28;657908;-67
2021/04/08 08:20:11;;;;;;;25.10;10.97;;;2.10;99.90;;;;;;4434966;28;658366;-69
2021/04/08 08:22:59;;;;;;;25.40;10.33;;;2.50;99.90;;;;;;4413016;28;657858;-70
2021/04/08 08:25:47;;;;;;;21.70;9.60;;;3.10;99.90;;;;;;4430845;28;657754;-68
2021/04/08 08:28:34;;;;;;;24.67;9.53;;;3.60;99.90;;;;;;4413500;28;657427;-68
2021/04/08 08:31:40;;;;;;;22.37;8.03;;;3.80;99.90;;;;;;4432224;28;656658;-69
2021/04/08 08:34:29;;;;;;;20.17;7.73;;;3.90;99.90;;;;;;4427816;28;656754;-67
2021/04/08 08:37:17;;;;;;;16.83;7.67;;;3.70;99.90;;;;;;4431454;28;657231;-69
2021/04/08 08:40:07;;;;;;;11.70;5.73;;;3.60;99.90;;;;;;4412454;28;657877;-69
2021/04/08 08:42:55;;;;;;;16.43;6.47;;;3.80;99.90;;;;;;4382456;28;657456;-69
2021/04/08 08:45:43;;;;;;;13.90;5.80;;;4.00;99.90;;;;;;4428674;28;656777;-68
2021/04/08 08:48:31;;;;;;;10.40;5.03;;;4.20;99.90;;;;;;4435129;28;656460;-68
2021/04/08 08:51:19;;;;;;;8.93;4.55;;;4.10;99.90;;;;;;4413431;28;657287;-68
2021/04/08 08:54:06;;;;;;;7.10;3.97;;;4.00;99.90;;;;;;4433043;28;656279;-69
2021/04/08 08:56:54;;;;;;;13.53;4.50;;;3.80;99.90;;;;;;4415033;28;655901;-69
2021/04/08 08:59:41;;;;;;;9.37;3.63;;;3.70;99.90;;;;;;4433834;28;656877;-67
2021/04/08 09:02:29;;;;;;;8.90;3.13;;;3.90;99.90;;;;;;4412641;28;655513;-69
2021/04/08 09:05:20;;;;;;;11.83;3.87;;;3.60;99.90;;;;;;4432887;28;655165;-69
2021/04/08 09:08:11;;;;;;;12.27;4.30;;;3.60;99.90;;;;;;4409025;28;657238;-69
2021/04/08 09:10:58;;;;;;;13.47;3.90;;;3.50;99.90;;;;;;4385916;28;656800;-69
2021/04/08 09:13:46;;;;;;;11.90;3.80;;;3.40;99.90;;;;;;4434790;28;657654;-68
2021/04/08 09:16:42;;;;;;;12.03;4.13;;;3.40;99.90;;;;;;4412536;28;656785;-69
2021/04/08 09:19:31;;;;;;;11.47;3.97;;;3.40;99.90;;;;;;4385875;28;657350;-69
2021/04/08 09:22:19;;;;;;;13.23;4.53;;;3.60;99.90;;;;;;4412629;28;656493;-69
2021/04/08 09:25:08;;;;;;;13.67;4.43;;;4.00;99.90;;;;;;4431312;28;656373;-70
2021/04/08 09:27:57;;;;;;;12.23;4.10;;;4.40;99.90;;;;;;4408854;28;656694;-71
2021/04/08 09:30:50;;;;;;;16.97;3.83;;;4.70;99.90;;;;;;4408956;28;658221;-71
2021/04/08 09:33:56;;;;;;;9.47;3.60;;;4.80;99.90;;;;;;4386321;28;656210;-68
2021/04/08 09:36:43;;;;;;;8.23;3.15;;;4.70;99.90;;;;;;4413179;28;655522;-68
2021/04/08 09:39:32;;;;;;;12.67;3.53;;;4.50;99.90;;;;;;4432440;28;655685;-69
2021/04/08 09:42:21;;;;;;;7.90;2.93;;;4.10;99.90;;;;;;4394207;28;658032;-68
2021/04/08 09:45:09;;;;;;;10.27;3.70;;;4.00;99.90;;;;;;4413484;28;655264;-69
2021/04/08 09:48:07;;;;;;;11.10;3.93;;;3.80;99.90;;;;;;4430159;28;657501;-67
2021/04/08 09:50:55;;;;;;;11.07;3.97;;;3.80;99.90;;;;;;4411491;28;657089;-69
2021/04/08 09:53:58;;;;;;;17.07;5.00;;;3.60;99.90;;;;;;4431408;28;656359;-69
2021/04/08 09:56:53;;;;;;;13.60;4.03;;;3.30;99.90;;;;;;4408186;28;656834;-69
2021/04/08 09:59:56;;;;;;;12.53;4.80;;;3.10;99.90;;;;;;4411771;28;656903;-69
2021/04/08 10:03:02;;;;;;;10.30;4.40;;;2.80;99.90;;;;;;4412937;28;656714;-68
2021/04/08 10:05:49;;;;;;;6.73;3.03;;;2.70;99.90;;;;;;4409141;28;657094;-69
2021/04/08 10:08:37;;;;;;;10.07;3.50;;;2.70;99.90;;;;;;4432314;28;655899;-69
2021/04/08 10:11:27;;;;;;;4.97;2.30;;;2.90;99.90;;;;;;4411878;28;656759;-68
2021/04/08 10:14:20;;;;;;;6.93;2.50;;;2.90;99.90;;;;;;4413550;28;655443;-69
2021/04/08 10:17:09;;;;;;;6.20;2.30;;;3.10;99.90;;;;;;4406239;28;655734;-67
2021/04/08 10:20:01;;;;;;;4.80;2.17;;;3.40;99.90;;;;;;4431933;28;655976;-70
2021/04/08 10:22:49;;;;;;;11.93;2.53;;;4.30;99.90;;;;;;4386710;28;656129;-68
2021/04/08 10:25:37;;;;;;;9.00;3.10;;;5.00;99.90;;;;;;4430937;28;657369;-69
2021/04/08 10:28:25;;;;;;;7.10;3.30;;;5.20;99.90;;;;;;4394669;28;657027;-70
2021/04/08 10:31:19;;;;;;;8.33;3.70;;;5.60;99.90;;;;;;4431904;28;656084;-69
2021/04/08 10:34:07;;;;;;;7.30;3.17;;;6.00;99.90;;;;;;4408987;28;655373;-69
2021/04/08 10:36:55;;;;;;;11.03;3.97;;;6.40;99.90;;;;;;4413150;28;656490;-69
2021/04/08 10:39:43;;;;;;;10.93;3.67;;;7.10;99.90;;;;;;4411308;28;656280;-69
2021/04/08 10:42:32;;;;;;;7.13;3.53;;;7.10;99.90;;;;;;4434698;28;657433;-69
2021/04/08 10:45:21;;;;;;;11.10;3.70;;;6.40;99.90;;;;;;4409307;28;656758;-68
2021/04/08 10:48:11;;;;;;;10.00;3.63;;;6.20;99.90;;;;;;4411128;28;656638;-68
2021/04/08 10:50:59;;;;;;;10.13;3.10;;;5.50;99.90;;;;;;4411777;28;656578;-68
2021/04/08 10:53:46;;;;;;;10.15;3.53;;;4.90;99.90;;;;;;4427836;28;656687;-69
2021/04/08 10:56:34;;;;;;;10.13;4.03;;;4.20;99.90;;;;;;4411704;28;656620;-68
2021/04/08 10:59:22;;;;;;;7.23;3.60;;;3.80;99.90;;;;;;4430703;28;657134;-69
2021/04/08 11:02:23;;;;;;;10.77;4.32;;;3.70;99.90;;;;;;4415900;28;655835;-69
2021/04/08 11:05:16;;;;;;;11.87;5.27;;;3.50;99.90;;;;;;4411911;28;657481;-69
2021/04/08 11:08:05;;;;;;;12.60;6.07;;;3.40;99.90;;;;;;4360504;28;657577;-68
2021/04/08 11:10:54;;;;;;;15.60;6.57;;;3.60;99.90;;;;;;4425555;28;656355;-68
2021/04/08 11:13:43;;;;;;;15.37;6.83;;;4.50;99.90;;;;;;4433327;28;657049;-69
2021/04/08 11:16:31;;;;;;;12.33;6.37;;;5.40;99.90;;;;;;4411032;28;656965;-68
2021/04/08 11:19:18;;;;;;;12.37;7.10;;;6.00;99.90;;;;;;4414859;28;656682;-69
2021/04/08 11:22:09;;;;;;;12.70;6.00;;;6.20;99.90;;;;;;4437399;28;657175;-69
2021/04/08 11:25:02;;;;;;;9.52;3.90;;;6.30;99.90;;;;;;4410502;28;657050;-69
2021/04/08 11:27:53;;;;;;;6.07;3.30;;;6.00;99.90;;;;;;4416130;28;655473;-69
2021/04/08 11:30:45;;;;;;;6.93;2.40;;;5.50;99.90;;;;;;4412115;28;656869;-69
2021/04/08 11:33:33;;;;;;;6.87;2.50;;;5.40;99.90;;;;;;4433132;28;655689;-68
2021/04/08 11:36:21;;;;;;;9.67;3.80;;;5.30;99.90;;;;;;4434390;28;656737;-69
2021/04/08 11:39:13;;;;;;;6.43;3.53;;;5.20;99.90;;;;;;4415744;28;656069;-68
2021/04/08 11:42:17;;;;;;;8.20;3.60;;;5.50;99.90;;;;;;4411638;28;656257;-69
2021/04/08 11:45:24;;;;;;;8.03;3.07;;;5.30;99.90;;;;;;4392254;28;655838;-68
2021/04/08 11:48:11;;;;;;;8.88;5.00;;;5.30;99.90;;;;;;4410974;28;656239;-69
2021/04/08 11:51:04;;;;;;;10.33;4.60;;;5.40;99.90;;;;;;4415475;28;655615;-68
2021/04/08 11:53:51;;;;;;;4.37;2.20;;;5.20;99.90;;;;;;4410526;28;657373;-69
2021/04/08 11:56:41;;;;;;;8.50;3.70;;;4.60;99.90;;;;;;4415958;28;655248;-69
2021/04/08 11:59:33;;;;;;;8.53;4.23;;;4.60;99.90;;;;;;4415829;28;655637;-68
2021/04/08 12:02:34;;;;;;;12.37;5.03;;;4.80;99.90;;;;;;4411365;28;656251;-69
2021/04/08 12:05:21;;;;;;;10.53;4.90;;;4.90;99.90;;;;;;4410223;28;657043;-69
2021/04/08 12:08:11;;;;;;;9.63;4.10;;;5.00;99.90;;;;;;4411876;28;656671;-69
2021/04/08 12:10:58;;;;;;;5.47;1.70;;;5.70;99.90;;;;;;4414800;28;655592;-68
2021/04/08 12:14:05;;;;;;;7.90;1.90;;;5.60;99.90;;;;;;4433345;28;657287;-69
2021/04/08 12:17:05;;;;;;;11.13;1.50;;;6.30;99.90;;;;;;4406404;28;655908;-69
2021/04/08 12:19:53;;;;;;;3.33;1.67;;;6.80;99.90;;;;;;4400946;28;656828;-68
2021/04/08 12:22:40;;;;;;;5.47;1.70;;;7.70;99.90;;;;;;4433893;28;657100;-69
2021/04/08 12:25:28;;;;;;;3.73;1.33;;;8.60;99.90;;;;;;4415170;28;655656;-68
2021/04/08 12:28:15;;;;;;;3.13;1.20;;;9.10;99.90;;;;;;4433895;28;657424;-69
2021/04/08 12:31:04;;;;;;;6.00;1.60;;;9.30;99.90;;;;;;4414557;28;655488;-69
2021/04/08 12:33:52;;;;;;;7.87;2.30;;;9.30;99.90;;;;;;4433679;28;655476;-70
2021/04/08 12:36:40;;;;;;;4.87;1.77;;;9.80;99.90;;;;;;4414750;28;656325;-69
2021/04/08 12:39:29;;;;;;;4.30;1.60;;;10.10;96.20;;;;;;4417863;28;655677;-68
2021/04/08 12:42:17;;;;;;;4.30;1.37;;;9.90;92.90;;;;;;4432046;28;656767;-69
2021/04/08 12:45:06;;;;;;;3.57;1.37;;;9.30;91.80;;;;;;4414633;28;655674;-70
2021/04/08 12:47:55;;;;;;;9.10;3.10;;;8.90;90.30;;;;;;4410312;28;655852;-68
2021/04/08 12:50:45;;;;;;;9.60;5.33;;;8.30;93.20;;;;;;4414336;28;655779;-68
2021/04/08 12:53:33;;;;;;;6.33;3.43;;;7.80;97.50;;;;;;4426240;28;655561;-67
2021/04/08 12:56:23;;;;;;;7.63;4.43;;;7.60;97.60;;;;;;4437387;28;656216;-67
2021/04/08 12:59:10;;;;;;;13.17;6.37;;;7.80;99.50;;;;;;4409250;28;657523;-68
2021/04/08 13:01:59;;;;;;;12.13;5.73;;;7.30;99.90;;;;;;4409410;28;656470;-66
2021/04/08 13:04:49;;;;;;;14.97;6.97;;;6.50;99.90;;;;;;4436153;28;656497;-69
2021/04/08 13:07:37;;;;;;;14.13;6.30;;;6.10;99.90;;;;;;4409611;28;656694;-68
2021/04/08 13:10:25;;;;;;;10.67;5.67;;;5.70;99.90;;;;;;4412547;28;656658;-69
2021/04/08 13:13:14;;;;;;;15.03;5.67;;;5.50;99.90;;;;;;4427489;28;656921;-66
2021/04/08 13:16:01;;;;;;;15.27;5.90;;;5.10;99.90;;;;;;4431114;28;656969;-67
2021/04/08 13:18:49;;;;;;;8.70;3.93;;;4.80;99.90;;;;;;4411330;28;656843;-70
2021/04/08 13:21:38;;;;;;;6.00;3.33;;;4.10;99.90;;;;;;4436855;28;655459;-70
2021/04/08 13:24:25;;;;;;;5.17;2.50;;;3.10;99.90;;;;;;4409020;28;656608;-70
2021/04/08 13:27:13;;;;;;;2.87;1.77;;;2.30;99.90;;;;;;4418997;28;655580;-68
2021/04/08 13:30:00;;;;;;;7.23;2.03;;;1.70;99.90;;;;;;4432703;28;656278;-70
2021/04/08 13:32:48;;;;;;;4.60;2.33;;;1.40;99.90;;;;;;4413527;28;655633;-69
2021/04/08 13:35:35;;;;;;;5.20;1.80;;;1.20;99.90;;;;;;4435057;28;656183;-69
2021/04/08 13:38:24;;;;;;;3.90;2.20;;;1.10;99.90;;;;;;4413098;28;655292;-67
2021/04/08 13:41:11;;;;;;;5.83;2.63;;;1.30;99.90;;;;;;4436430;28;655101;-69
2021/04/08 13:44:01;;;;;;;8.20;3.23;;;1.60;99.90;;;;;;4372113;28;655285;-70
2021/04/08 13:46:48;;;;;;;8.00;3.50;;;1.90;99.90;;;;;;4413102;28;655321;-71
2021/04/08 13:49:36;;;;;;;5.93;2.87;;;2.50;99.90;;;;;;4431872;28;655224;-71
2021/04/08 13:52:26;;;;;;;4.97;2.70;;;3.20;99.90;;;;;;4413614;28;655369;-70
2021/04/08 13:55:16;;;;;;;4.83;2.47;;;3.70;99.90;;;;;;4413310;28;655797;-68
2021/04/08 13:58:13;;;;;;;8.93;3.50;;;3.80;99.90;;;;;;4413375;28;655514;-69
2021/04/08 14:01:00;;;;;;;5.57;2.80;;;3.90;99.90;;;;;;4385774;28;655641;-69
2021/04/08 14:03:47;;;;;;;15.07;6.43;;;3.70;99.90;;;;;;4413260;28;655388;-68
2021/04/08 14:06:37;;;;;;;18.53;7.47;;;3.30;99.90;;;;;;4435103;28;656845;-69
2021/04/08 14:09:25;;;;;;;13.57;6.40;;;3.10;99.90;;;;;;4412207;28;657272;-69
2021/04/08 14:12:15;;;;;;;19.20;7.57;;;3.10;99.90;;;;;;4429039;28;656924;-68
2021/04/08 14:15:03;;;;;;;16.20;6.27;;;3.20;99.90;;;;;;4434949;28;656416;-69
2021/04/08 14:17:51;;;;;;;14.17;6.70;;;3.20;99.90;;;;;;4408141;28;656879;-70
2021/04/08 14:20:42;;;;;;;12.70;7.00;;;3.40;99.90;;;;;;4411864;28;656758;-68
2021/04/08 14:23:30;;;;;;;18.63;8.47;;;3.60;99.90;;;;;;4411750;28;657222;-69